Time;durP1;ratioP1;P1;durP2;ratioP2;P2;SDS_P1;SDS_P2;PMS_P1;PMS_P2;Temp;Humidity;BMP_temperature;BMP_pressure;BME280_temperature;BME280_humidity;BME280_pressure;Samples;Min_cycle;Max_cycle;Signal;HPM_P1;HPM_P2
2021/07/03 00:00:33;;;;;;;7.08;4.75;;;;;;;17.45;74.84;97871.03;1779474;80;21336;-79
2021/07/03 00:03:01;;;;;;;6.85;4.35;;;;;;;17.47;74.81;97873.67;1779247;80;21086;-79
2021/07/03 00:05:28;;;;;;;6.75;5.05;;;;;;;17.44;74.82;97865.32;1779409;80;20915;-80
2021/07/03 00:07:54;;;;;;;6.62;4.55;;;;;;;17.46;74.85;97872.64;1779033;80;20962;-79
2021/07/03 00:10:21;;;;;;;7.35;6.03;;;;;;;17.51;74.87;97868.33;1779160;80;21552;-81
2021/07/03 00:12:47;;;;;;;6.45;5.80;;;;;;;17.53;74.68;97878.98;1778970;80;21109;-81
2021/07/03 00:15:19;;;;;;;7.03;6.33;;;;;;;17.51;74.80;97873.01;1779571;80;21013;-81
2021/07/03 00:17:44;;;;;;;11.28;7.17;;;;;;;17.49;74.69;97876.08;1779019;80;20985;-81
2021/07/03 00:20:11;;;;;;;9.58;7.90;;;;;;;17.54;74.57;97868.27;1779514;80;20836;-81
2021/07/03 00:22:37;;;;;;;9.93;7.08;;;;;;;17.51;74.53;97871.07;1779329;80;20922;-81
2021/07/03 00:25:04;;;;;;;7.78;6.97;;;;;;;17.49;74.35;97869.23;1779167;80;21284;-81
2021/07/03 00:27:30;;;;;;;6.83;6.08;;;;;;;17.47;74.31;97868.20;1779070;80;20903;-79
2021/07/03 00:29:56;;;;;;;9.48;6.97;;;;;;;17.45;74.57;97867.73;1779104;80;20973;-79
2021/07/03 00:32:23;;;;;;;7.83;6.58;;;;;;;17.46;74.81;97868.53;1779072;80;20862;-82
2021/07/03 00:34:49;;;;;;;7.35;6.50;;;;;;;17.44;75.19;97870.23;1779277;80;20923;-79
2021/07/03 00:37:16;;;;;;;8.75;7.05;;;;;;;17.42;75.30;97867.56;1779135;80;22032;-82
2021/07/03 00:39:42;;;;;;;8.80;7.60;;;;;;;17.41;75.55;97868.13;1779033;80;20970;-81
2021/07/03 00:42:09;;;;;;;7.92;6.97;;;;;;;17.45;75.32;97860.88;1779137;80;20967;-79
2021/07/03 00:44:38;;;;;;;10.63;8.15;;;;;;;17.47;75.26;97864.09;1779223;80;20997;-81
2021/07/03 00:47:05;;;;;;;9.88;8.23;;;;;;;17.46;75.30;97859.75;1779376;80;20977;-80
2021/07/03 00:49:33;;;;;;;10.10;7.85;;;;;;;17.45;75.25;97861.45;1748229;80;41692;-79
2021/07/03 00:52:00;;;;;;;10.30;7.30;;;;;;;17.46;75.01;97860.31;1778965;80;20907;-78
2021/07/03 00:54:28;;;;;;;11.10;8.08;;;;;;;17.46;75.36;97864.42;1779205;80;20907;-80
2021/07/03 00:57:02;;;;;;;10.90;7.27;;;;;;;17.49;75.40;97859.64;1779402;80;21018;-80
2021/07/03 00:59:41;;;;;;;11.05;7.70;;;;;;;17.48;75.55;97860.22;1745267;80;21211;-80
2021/07/03 01:02:09;;;;;;;9.60;8.20;;;;;;;17.48;76.22;97863.52;1779392;80;21152;-79
2021/07/03 01:04:35;;;;;;;12.17;9.47;;;;;;;17.48;76.91;97858.84;1779436;80;20978;-79
2021/07/03 01:07:03;;;;;;;13.70;8.63;;;;;;;17.43;77.79;97855.47;1779282;80;21009;-79
2021/07/03 01:09:29;;;;;;;12.43;9.65;;;;;;;17.44;77.37;97854.37;1774898;80;21572;-81
2021/07/03 01:11:55;;;;;;;14.38;10.88;;;;;;;17.48;76.75;97853.94;1784447;80;21504;-81
2021/07/03 01:14:21;;;;;;;13.78;10.38;;;;;;;17.50;76.62;97851.66;1777239;80;21316;-80
2021/07/03 01:16:47;;;;;;;12.15;10.55;;;;;;;17.45;77.59;97848.55;1770595;80;20926;-79
2021/07/03 01:19:13;;;;;;;15.00;10.10;;;;;;;17.38;78.10;97840.61;1770955;81;21442;-81
2021/07/03 01:21:39;;;;;;;11.03;8.70;;;;;;;17.38;77.66;97843.34;1748984;81;21010;-81
2021/07/03 01:24:06;;;;;;;15.48;9.73;;;;;;;17.41;77.07;97838.57;1770677;81;21048;-81
2021/07/03 01:26:43;;;;;;;12.20;9.93;;;;;;;17.42;76.97;97838.23;1770783;80;21143;-79
2021/07/03 01:29:08;;;;;;;15.05;11.25;;;;;;;17.44;77.26;97838.73;1770621;80;20970;-78
2021/07/03 01:31:35;;;;;;;10.72;9.58;;;;;;;17.41;77.72;97838.00;1770785;81;20942;-78
2021/07/03 01:34:01;;;;;;;10.82;9.23;;;;;;;17.37;77.56;97830.22;1770720;81;20895;-80
2021/07/03 01:36:27;;;;;;;14.25;10.08;;;;;;;17.39;77.52;97832.62;1770690;81;20942;-80
2021/07/03 01:38:53;;;;;;;15.53;10.15;;;;;;;17.39;77.74;97837.53;1770920;81;21281;-78
2021/07/03 01:41:19;;;;;;;11.73;9.43;;;;;;;17.35;78.56;97829.75;1770854;80;21472;-80
2021/07/03 01:43:45;;;;;;;12.13;9.25;;;;;;;17.38;78.21;97839.23;1770843;81;20918;-77
2021/07/03 01:46:11;;;;;;;14.55;11.35;;;;;;;17.36;78.46;97833.30;1770975;81;20993;-80
2021/07/03 01:48:39;;;;;;;15.63;11.08;;;;;;;17.23;78.96;97832.92;1749242;81;20866;-77
2021/07/03 01:51:04;;;;;;;14.93;10.20;;;;;;;17.25;79.15;97834.77;1770783;81;21250;-79
2021/07/03 01:53:31;;;;;;;12.00;10.20;;;;;;;17.22;78.94;97832.69;1770759;81;20958;-81
2021/07/03 01:55:56;;;;;;;14.20;9.70;;;;;;;17.23;78.39;97837.03;1771032;80;21041;-78
2021/07/03 01:58:24;;;;;;;10.72;9.23;;;;;;;17.14;79.30;97835.13;1770722;81;21390;-80
2021/07/03 02:00:54;;;;;;;11.43;10.00;;;;;;;17.19;78.72;97836.89;1771004;81;20947;-78
2021/07/03 02:03:21;;;;;;;12.10;8.03;;;;;;;17.21;78.51;97836.00;1770799;80;21316;-79
2021/07/03 02:05:47;;;;;;;15.10;10.38;;;;;;;17.20;78.75;97840.67;1749276;81;20974;-80
2021/07/03 02:08:13;;;;;;;14.73;10.30;;;;;;;17.24;78.40;97837.27;1770946;81;20985;-81
2021/07/03 02:10:40;;;;;;;14.03;9.20;;;;;;;17.15;78.96;97840.84;1768797;81;20906;-79
2021/07/03 02:13:05;;;;;;;11.30;9.03;;;;;;;17.20;78.97;97839.87;1765311;81;21312;-79
2021/07/03 02:15:32;;;;;;;11.70;9.13;;;;;;;17.17;78.94;97846.78;1765139;81;21172;-79
2021/07/03 02:18:00;;;;;;;11.13;9.93;;;;;;;17.22;78.37;97842.27;1765015;81;21284;-79
2021/07/03 02:20:26;;;;;;;10.93;9.83;;;;;;;17.26;78.26;97840.47;1765149;80;20970;-81
2021/07/03 02:22:52;;;;;;;18.12;9.40;;;;;;;17.25;78.39;97839.67;1765166;81;21009;-81
2021/07/03 02:25:18;;;;;;;13.28;9.85;;;;;;;17.28;78.16;97836.86;1765286;80;20851;-81
2021/07/03 02:27:44;;;;;;;12.55;10.70;;;;;;;17.30;78.13;97842.81;1765263;81;21400;-79
2021/07/03 02:30:13;;;;;;;13.95;8.88;;;;;;;17.28;78.31;97843.14;1765186;81;20859;-81
2021/07/03 02:32:40;;;;;;;12.07;9.65;;;;;;;17.26;78.83;97841.30;1765156;81;20927;-79
2021/07/03 02:35:06;;;;;;;14.43;9.53;;;;;;;17.28;78.11;97838.23;1769091;81;21355;-79
2021/07/03 02:37:32;;;;;;;14.47;10.15;;;;;;;17.29;78.10;97835.73;1765201;81;21458;-79
2021/07/03 02:39:58;;;;;;;11.25;9.15;;;;;;;17.29;78.37;97835.73;1765131;81;21128;-78
2021/07/03 02:42:24;;;;;;;16.77;10.60;;;;;;;17.30;78.15;97834.03;1765091;81;20894;-79
2021/07/03 02:44:50;;;;;;;14.68;10.98;;;;;;;17.31;78.08;97841.11;1769320;80;20973;-81
2021/07/03 02:47:16;;;;;;;11.35;10.03;;;;;;;17.32;77.85;97833.70;1765311;80;20835;-78
2021/07/03 02:49:42;;;;;;;11.57;10.00;;;;;;;17.24;78.67;97835.89;1765084;81;20917;-81
2021/07/03 02:52:08;;;;;;;16.87;11.57;;;;;;;17.16;79.26;97832.05;1765262;81;22194;-81
2021/07/03 02:54:34;;;;;;;13.32;11.30;;;;;;;17.13;79.43;97837.63;1765062;81;20882;-79
2021/07/03 02:57:00;;;;;;;12.35;11.12;;;;;;;17.16;78.57;97835.59;1765187;81;20922;-79
2021/07/03 02:59:26;;;;;;;39.98;36.20;;;;;;;17.17;78.28;97836.39;1765594;81;20923;-79
2021/07/03 03:01:52;;;;;;;16.85;12.18;;;;;;;17.16;78.45;97839.70;1765577;81;21411;-79
2021/07/03 03:04:20;;;;;;;18.00;11.68;;;;;;;17.19;78.31;97831.42;1765236;80;21093;-81
2021/07/03 03:06:46;;;;;;;15.90;11.45;;;;;;;17.17;78.55;97841.30;1765079;81;21331;-79
2021/07/03 03:09:12;;;;;;;18.80;14.07;;;;;;;17.22;78.22;97846.38;1765365;81;21595;-81
2021/07/03 03:11:38;;;;;;;13.25;10.93;;;;;;;17.24;78.64;97845.48;1765079;81;20927;-81
2021/07/03 03:14:04;;;;;;;13.45;10.32;;;;;;;17.24;78.27;97843.55;1765301;80;20899;-79
2021/07/03 03:16:29;;;;;;;13.55;10.90;;;;;;;17.29;78.30;97845.31;1765250;81;21135;-79
2021/07/03 03:18:56;;;;;;;16.87;11.85;;;;;;;17.30;78.27;97840.07;1765300;81;20863;-79
2021/07/03 03:21:22;;;;;;;16.37;11.75;;;;;;;17.35;77.85;97842.64;1765283;80;21010;-79
2021/07/03 03:23:48;;;;;;;17.23;12.93;;;;;;;17.27;78.17;97848.95;1765271;81;20963;-82
2021/07/03 03:26:15;;;;;;;15.28;12.45;;;;;;;17.28;78.12;97846.45;1765314;81;20974;-81
2021/07/03 03:28:41;;;;;;;15.50;13.32;;;;;;;17.33;77.71;97847.62;1765070;80;21180;-79
2021/07/03 03:31:07;;;;;;;15.28;12.15;;;;;;;17.28;78.46;97847.25;1764845;80;20899;-79
2021/07/03 03:33:33;;;;;;;15.45;13.08;;;;;;;17.30;78.22;97845.55;1765450;81;21029;-81
2021/07/03 03:36:00;;;;;;;17.10;13.70;;;;;;;17.33;78.11;97847.05;1765166;80;20939;-81
2021/07/03 03:38:26;;;;;;;18.32;13.62;;;;;;;17.31;78.05;97847.95;1765414;81;21033;-79
2021/07/03 03:40:52;;;;;;;18.05;13.50;;;;;;;17.28;78.65;97847.25;1765066;81;21274;-79
2021/07/03 03:43:17;;;;;;;18.42;14.05;;;;;;;17.28;78.60;97844.52;1765612;81;20859;-81
2021/07/03 03:45:44;;;;;;;18.57;13.03;;;;;;;17.26;78.35;97849.52;1743116;81;21000;-79
2021/07/03 03:48:10;;;;;;;19.40;14.38;;;;;;;17.26;78.27;97857.73;1765408;81;20935;-81
2021/07/03 03:50:36;;;;;;;17.10;13.58;;;;;;;17.30;78.33;97855.94;1765044;81;20922;-81
2021/07/03 03:53:03;;;;;;;18.25;15.13;;;;;;;17.21;79.04;97852.42;1765363;81;21185;-81
2021/07/03 03:55:29;;;;;;;22.05;16.48;;;;;;;17.18;78.50;97852.52;1765036;81;20943;-81
2021/07/03 03:57:55;;;;;;;22.13;15.85;;;;;;;17.08;79.83;97848.73;1765482;80;20878;-80
2021/07/03 04:00:21;;;;;;;21.93;16.27;;;;;;;17.13;78.88;97849.14;1765065;80;20994;-81
2021/07/03 04:02:47;;;;;;;21.33;16.73;;;;;;;17.13;79.08;97851.87;1765125;81;20952;-79
2021/07/03 04:05:14;;;;;;;19.95;16.25;;;;;;;17.13;78.66;97847.20;1743618;81;20968;-81
2021/07/03 04:07:41;;;;;;;19.10;16.23;;;;;;;17.11;78.86;97850.84;1768166;80;21002;-79
2021/07/03 04:10:08;;;;;;;18.55;15.20;;;;;;;17.06;79.29;97851.00;1765113;81;20954;-78
2021/07/03 04:12:35;;;;;;;21.07;16.77;;;;;;;17.09;78.89;97860.48;1774372;80;20982;-79
2021/07/03 04:15:01;;;;;;;20.12;15.38;;;;;;;16.96;79.95;97860.13;1776107;80;21076;-80
2021/07/03 04:17:27;;;;;;;19.80;16.10;;;;;;;16.96;79.84;97856.02;1776400;80;21364;-81
2021/07/03 04:19:53;;;;;;;22.98;17.20;;;;;;;16.90;80.74;97852.65;1776470;80;20882;-79
2021/07/03 04:22:19;;;;;;;22.75;16.20;;;;;;;16.88;80.51;97856.28;1776375;80;20870;-81
2021/07/03 04:24:45;;;;;;;23.07;17.27;;;;;;;16.85;80.90;97851.47;1774447;80;20986;-78
2021/07/03 04:27:11;;;;;;;21.65;15.13;;;;;;;16.87;80.13;97850.00;1777029;80;21555;-81
2021/07/03 04:29:37;;;;;;;22.62;16.60;;;;;;;16.89;80.47;97843.63;1776283;80;21058;-81
2021/07/03 04:32:04;;;;;;;23.67;16.27;;;;;;;16.99;80.01;97846.59;1776662;80;20870;-81
2021/07/03 04:34:30;;;;;;;22.65;16.27;;;;;;;17.05;79.79;97845.30;1776541;80;21056;-81
2021/07/03 04:36:57;;;;;;;24.43;16.62;;;;;;;17.08;79.55;97839.72;1776492;80;21965;-79
2021/07/03 04:39:23;;;;;;;19.10;14.83;;;;;;;17.09;79.57;97839.96;1776732;80;20978;-81
2021/07/03 04:41:50;;;;;;;21.62;17.07;;;;;;;17.10;79.38;97842.39;1776581;80;21309;-81
2021/07/03 04:44:17;;;;;;;20.50;17.05;;;;;;;17.07;79.41;97839.48;1776146;80;20946;-79
2021/07/03 04:46:45;;;;;;;19.80;16.25;;;;;;;17.10;79.29;97837.48;1776259;80;20975;-79
2021/07/03 04:49:11;;;;;;;23.15;16.42;;;;;;;17.15;79.03;97835.36;1776725;80;21081;-81
2021/07/03 04:51:38;;;;;;;20.30;15.70;;;;;;;17.16;79.21;97834.22;1776560;80;20954;-79
2021/07/03 04:54:04;;;;;;;17.87;15.03;;;;;;;17.24;78.82;97835.33;1748997;80;21028;-81
2021/07/03 04:56:30;;;;;;;19.65;15.15;;;;;;;17.16;79.17;97840.27;1774008;80;21363;-79
2021/07/03 04:58:56;;;;;;;18.40;15.10;;;;;;;17.19;78.89;97833.59;1776584;80;20946;-82
2021/07/03 05:01:22;;;;;;;19.25;13.78;;;;;;;17.13;79.85;97834.09;1776146;80;21022;-81
2021/07/03 05:03:49;;;;;;;20.72;14.70;;;;;;;17.16;79.18;97838.33;1749270;80;21410;-81
2021/07/03 05:06:15;;;;;;;18.92;16.25;;;;;;;17.22;79.02;97834.06;1773815;80;21209;-79
2021/07/03 05:08:41;;;;;;;16.80;13.62;;;;;;;17.22;79.07;97834.06;1748993;80;20921;-81
2021/07/03 05:11:07;;;;;;;20.95;14.83;;;;;;;17.23;79.10;97839.77;1776438;80;20929;-82
2021/07/03 05:13:33;;;;;;;18.85;15.35;;;;;;;17.11;79.65;97839.09;1776565;80;20974;-79
2021/07/03 05:15:59;;;;;;;20.32;15.30;;;;;;;17.14;79.50;97846.64;1776117;80;20938;-79
2021/07/03 05:18:25;;;;;;;20.60;16.37;;;;;;;17.14;79.37;97844.70;1776905;80;21111;-81
2021/07/03 05:20:51;;;;;;;22.07;16.67;;;;;;;17.05;79.93;97849.41;1776586;80;20933;-81
2021/07/03 05:23:17;;;;;;;22.70;16.82;;;;;;;17.14;79.63;97845.27;1776650;80;20953;-79
2021/07/03 05:25:44;;;;;;;22.85;15.72;;;;;;;17.30;79.10;97841.44;1776305;80;21009;-81
2021/07/03 05:28:12;;;;;;;20.72;15.28;;;;;;;17.39;79.11;97844.95;1776484;80;20934;-79
2021/07/03 05:30:38;;;;;;;17.77;13.93;;;;;;;17.44;78.44;97845.58;1776280;80;21294;-81
2021/07/03 05:33:04;;;;;;;18.85;13.93;;;;;;;17.41;78.39;97848.16;1776761;80;20981;-81
2021/07/03 05:35:30;;;;;;;19.57;14.83;;;;;;;17.35;78.59;97855.77;1748617;80;21009;-79
2021/07/03 05:37:58;;;;;;;19.02;15.18;;;;;;;17.32;78.85;97856.41;1776349;80;21303;-81
2021/07/03 05:40:24;;;;;;;20.00;16.00;;;;;;;17.36;78.91;97854.63;1748569;80;20970;-81
2021/07/03 05:42:50;;;;;;;21.93;16.15;;;;;;;17.39;78.54;97848.48;1776948;80;21162;-79
2021/07/03 05:45:16;;;;;;;21.45;17.55;;;;;;;17.48;78.31;97850.63;1776524;80;20901;-81
2021/07/03 05:47:50;;;;;;;21.27;14.80;;;;;;;17.59;78.00;97851.63;1776411;80;20921;-81
2021/07/03 05:50:12;;;;;;;16.35;13.80;;;;;;;17.68;77.49;97851.02;1775909;80;20966;-79
2021/07/03 05:52:38;;;;;;;17.80;13.65;;;;;;;17.75;76.72;97860.36;1776447;80;20878;-81
2021/07/03 05:55:05;;;;;;;18.10;12.88;;;;;;;17.77;76.49;97858.66;1776685;80;21802;-81
2021/07/03 05:57:31;;;;;;;18.85;13.80;;;;;;;17.76;76.19;97860.59;1776351;80;20965;-82
2021/07/03 05:59:57;;;;;;;20.27;13.05;;;;;;;17.75;75.69;97861.73;1776540;80;20847;-81
2021/07/03 06:02:22;;;;;;;15.85;13.18;;;;;;;17.90;75.57;97860.38;1776640;80;20881;-81
2021/07/03 06:04:48;;;;;;;17.90;13.08;;;;;;;18.13;74.96;97864.20;1776807;80;20874;-81
2021/07/03 06:07:14;;;;;;;21.35;13.05;;;;;;;18.26;73.90;97864.49;1776737;80;21645;-80
2021/07/03 06:09:40;;;;;;;18.52;11.73;;;;;;;18.49;73.04;97867.72;1776614;80;20831;-81
2021/07/03 06:12:06;;;;;;;16.40;12.88;;;;;;;18.86;72.68;97864.02;1776596;80;20850;-79
2021/07/03 06:14:32;;;;;;;15.83;12.60;;;;;;;18.98;71.01;97870.15;1748705;80;21072;-80
2021/07/03 06:16:58;;;;;;;16.25;12.28;;;;;;;19.10;72.22;97878.41;1776516;80;20842;-80
2021/07/03 06:19:24;;;;;;;16.73;12.82;;;;;;;19.09;71.56;97881.50;1776297;80;21115;-81
2021/07/03 06:22:10;;;;;;;15.43;12.73;;;;;;;18.97;70.32;97882.81;1776426;80;21043;-80
2021/07/03 06:24:42;;;;;;;16.40;11.37;;;;;;;18.83;69.77;97883.92;1776705;80;20970;-78
2021/07/03 06:27:08;;;;;;;15.90;11.80;;;;;;;18.83;70.12;97888.61;1776651;80;21021;-79
2021/07/03 06:29:34;;;;;;;15.90;12.45;;;;;;;18.80;70.37;97884.61;1775820;80;21029;-81
2021/07/03 06:32:04;;;;;;;14.55;12.10;;;;;;;19.00;70.77;97887.08;1748435;80;21065;-79
2021/07/03 06:34:31;;;;;;;15.65;11.93;;;;;;;18.95;69.00;97889.22;1776465;80;20958;-81
2021/07/03 06:36:57;;;;;;;14.50;10.18;;;;;;;18.85;68.88;97888.50;1775419;80;20922;-80
2021/07/03 06:39:23;;;;;;;11.28;9.95;;;;;;;18.96;68.80;97888.88;1776112;80;20962;-80
2021/07/03 06:41:49;;;;;;;13.58;11.05;;;;;;;19.04;68.97;97890.74;1775368;80;20899;-78
2021/07/03 06:44:15;;;;;;;13.45;9.78;;;;;;;19.09;68.67;97892.48;1776350;80;21791;-81
2021/07/03 06:46:41;;;;;;;13.38;10.23;;;;;;;19.39;68.13;97893.92;1776022;80;21021;-81
2021/07/03 06:49:07;;;;;;;13.83;10.53;;;;;;;19.48;67.06;97890.28;1776576;80;21551;-81
2021/07/03 06:51:33;;;;;;;12.00;9.60;;;;;;;19.48;66.48;97895.77;1776249;80;20929;-78
2021/07/03 06:54:02;;;;;;;14.87;9.73;;;;;;;19.44;66.84;97895.67;1776794;80;20974;-81
2021/07/03 06:56:28;;;;;;;14.53;10.37;;;;;;;19.44;66.49;97888.80;1776264;80;21165;-82
2021/07/03 06:58:54;;;;;;;13.05;10.30;;;;;;;19.35;66.96;97889.47;1775117;80;21029;-79
2021/07/03 07:01:20;;;;;;;14.28;9.58;;;;;;;19.31;66.04;97903.09;1776084;80;20890;-79
2021/07/03 07:03:46;;;;;;;12.55;8.68;;;;;;;19.30;66.83;97903.41;1776600;80;21351;-79
2021/07/03 07:06:12;;;;;;;10.63;8.20;;;;;;;19.36;67.27;97892.44;1776149;80;21371;-79
2021/07/03 07:08:38;;;;;;;11.65;9.33;;;;;;;19.49;66.71;97896.03;1776239;80;21335;-82
2021/07/03 07:11:04;;;;;;;14.73;9.80;;;;;;;19.47;66.49;97901.05;1776279;80;20822;-79
2021/07/03 07:13:30;;;;;;;11.78;9.03;;;;;;;19.54;66.49;97904.84;1762005;80;20938;-79
2021/07/03 07:15:55;;;;;;;13.60;10.38;;;;;;;19.41;65.39;97907.34;1739074;81;20871;-79
2021/07/03 07:18:22;;;;;;;11.80;9.53;;;;;;;19.29;66.41;97905.92;1760716;81;20982;-79
2021/07/03 07:20:48;;;;;;;17.65;11.18;;;;;;;19.42;66.48;97915.81;1760076;80;21354;-79
2021/07/03 07:23:14;;;;;;;14.53;9.65;;;;;;;19.35;66.37;97908.70;1760123;81;21013;-81
2021/07/03 07:25:40;;;;;;;11.93;9.50;;;;;;;19.58;66.12;97910.50;1759989;80;20927;-81
2021/07/03 07:28:06;;;;;;;15.20;8.83;;;;;;;19.62;66.27;97899.84;1760340;80;20855;-81
2021/07/03 07:30:32;;;;;;;10.72;8.78;;;;;;;19.78;65.67;97901.35;1759684;81;21548;-79
2021/07/03 07:32:58;;;;;;;11.55;8.95;;;;;;;19.97;66.05;97905.70;1759459;81;21812;-82
2021/07/03 07:35:24;;;;;;;10.75;8.50;;;;;;;20.27;65.73;97910.98;1760613;81;20887;-81
2021/07/03 07:37:51;;;;;;;20.50;13.22;;;;;;;20.21;64.70;97904.09;1760086;81;20985;-82
2021/07/03 07:40:17;;;;;;;11.78;9.38;;;;;;;20.38;64.60;97905.22;1759590;81;20954;-79
2021/07/03 07:42:43;;;;;;;14.58;9.45;;;;;;;20.80;64.36;97902.17;1738311;81;20967;-79
2021/07/03 07:45:09;;;;;;;13.43;9.23;;;;;;;21.14;63.36;97902.15;1738864;81;21149;-79
2021/07/03 07:47:36;;;;;;;14.47;10.38;;;;;;;21.40;60.77;97894.23;1759473;81;20947;-82
2021/07/03 07:50:04;;;;;;;10.85;8.50;;;;;;;21.28;61.73;97897.64;1760199;80;21418;-79
2021/07/03 07:52:31;;;;;;;;;;;;;;;21.08;61.88;97900.79;1761894;81;21321;-81
2021/07/03 07:54:57;;;;;;;10.80;7.80;;;;;;;20.89;61.38;97891.81;1760526;81;20137;-79
2021/07/03 07:57:23;;;;;;;11.33;8.90;;;;;;;21.12;61.98;97895.62;1759765;81;21132;-79
2021/07/03 07:59:49;;;;;;;8.30;7.47;;;;;;;21.08;61.65;97891.95;1759798;81;21003;-82
2021/07/03 08:02:15;;;;;;;8.13;7.25;;;;;;;20.92;61.71;97892.48;1759750;81;21025;-79
2021/07/03 08:04:41;;;;;;;12.25;8.30;;;;;;;20.86;62.55;97889.77;1760107;81;20855;-81
2021/07/03 08:07:07;;;;;;;10.75;8.05;;;;;;;20.79;63.14;97888.98;1759853;81;21497;-82
2021/07/03 08:09:33;;;;;;;9.75;7.22;;;;;;;20.66;62.82;97899.80;1760033;81;21160;-80
2021/07/03 08:11:59;;;;;;;9.68;7.35;;;;;;;20.64;62.63;97904.05;1762390;80;20905;-79
2021/07/03 08:14:25;;;;;;;15.15;8.08;;;;;;;20.19;62.92;97905.03;1765131;81;20974;-82
2021/07/03 08:16:51;;;;;;;9.60;7.15;;;;;;;20.26;63.50;97908.00;1764904;81;21478;-82
2021/07/03 08:19:17;;;;;;;8.30;7.35;;;;;;;21.21;61.76;97897.41;1765291;81;20896;-79
2021/07/03 08:21:44;;;;;;;12.90;7.90;;;;;;;20.83;62.54;97894.58;1764988;81;21190;-81
2021/07/03 08:24:10;;;;;;;8.20;6.72;;;;;;;21.18;61.63;97900.85;1765180;81;21324;-82
2021/07/03 08:26:36;;;;;;;9.58;7.20;;;;;;;21.78;60.57;97894.19;1764979;80;20971;-79
2021/07/03 08:29:02;;;;;;;10.85;7.60;;;;;;;22.19;59.50;97894.81;1765530;81;20913;-80
2021/07/03 08:31:28;;;;;;;9.55;7.50;;;;;;;22.18;57.04;97889.08;1765169;80;20903;-82
2021/07/03 08:33:54;;;;;;;10.08;7.62;;;;;;;22.94;57.28;97891.75;1765089;81;21730;-79
2021/07/03 08:36:20;;;;;;;12.37;8.00;;;;;;;22.50;56.94;97894.75;1764862;80;20942;-82
2021/07/03 08:38:46;;;;;;;8.00;6.85;;;;;;;22.46;55.42;97894.44;1765238;80;20907;-79
2021/07/03 08:41:13;;;;;;;10.08;6.67;;;;;;;22.10;56.71;97895.59;1765004;81;21492;-79
2021/07/03 08:43:49;;;;;;;12.10;7.60;;;;;;;22.14;57.44;97895.11;1765239;80;20993;-80
2021/07/03 08:46:19;;;;;;;8.85;7.40;;;;;;;22.34;55.59;97895.95;1765046;81;21131;-79
2021/07/03 08:48:47;;;;;;;10.32;6.60;;;;;;;22.87;55.64;97890.80;1765195;80;21336;-81
2021/07/03 08:51:13;;;;;;;10.80;7.17;;;;;;;23.88;54.52;97887.58;1765175;81;20991;-79
2021/07/03 08:53:39;;;;;;;11.50;6.60;;;;;;;23.69;54.27;97889.63;1764958;80;20867;-82
2021/07/03 08:56:05;;;;;;;13.70;7.80;;;;;;;23.71;54.76;97896.95;1765212;80;20939;-79
2021/07/03 08:58:31;;;;;;;10.72;8.08;;;;;;;23.06;54.44;97892.97;1765215;81;21129;-82
2021/07/03 09:00:57;;;;;;;8.88;7.50;;;;;;;23.87;53.21;97897.05;1765309;81;20863;-82
2021/07/03 09:03:26;;;;;;;9.95;7.25;;;;;;;24.90;51.20;97895.59;1765237;81;20910;-80
2021/07/03 09:05:54;;;;;;;;;;;;;;;25.90;48.75;97883.61;1767825;81;21006;-82
2021/07/03 09:08:24;;;;;;;12.55;8.48;;;;;;;25.51;47.83;97888.17;1743387;81;20158;-80
2021/07/03 09:11:04;;;;;;;12.25;7.85;;;;;;;24.36;49.70;97899.03;1764769;81;21280;-81
2021/07/03 09:13:31;;;;;;;8.95;7.22;;;;;;;24.38;50.72;97892.52;1771552;80;20899;-82
2021/07/03 09:15:56;;;;;;;10.88;7.20;;;;;;;23.99;51.20;97887.73;1775991;80;21148;-82
2021/07/03 09:18:23;;;;;;;11.45;7.22;;;;;;;23.00;52.07;97879.25;1776488;80;21476;-81
2021/07/03 09:20:53;;;;;;;11.85;8.00;;;;;;;22.91;52.59;97885.58;1776113;80;21014;-79
2021/07/03 09:23:22;;;;;;;11.68;7.83;;;;;;;22.64;53.37;97884.58;1776251;80;21145;-80
2021/07/03 09:25:55;;;;;;;9.88;8.40;;;;;;;21.91;53.73;97883.88;1776302;80;21033;-79
2021/07/03 09:28:25;;;;;;;12.07;7.95;;;;;;;21.86;55.00;97878.05;1776004;80;21084;-82
2021/07/03 09:30:53;;;;;;;12.98;8.13;;;;;;;22.07;54.65;97880.56;1776088;80;21036;-80
2021/07/03 09:33:24;;;;;;;10.95;8.33;;;;;;;22.32;54.74;97887.23;1776658;80;20950;-80
2021/07/03 09:36:01;;;;;;;10.78;8.30;;;;;;;22.24;55.51;97887.07;1776290;80;21812;-79
2021/07/03 09:38:42;;;;;;;11.15;8.50;;;;;;;22.34;54.55;97878.81;1774783;79;20911;-80
2021/07/03 09:41:15;;;;;;;14.18;9.08;;;;;;;22.40;55.00;97871.85;1776084;80;21386;-82
2021/07/03 09:43:53;;;;;;;16.05;8.25;;;;;;;22.36;54.32;97873.72;1776780;80;21080;-82
2021/07/03 09:46:26;;;;;;;11.63;8.63;;;;;;;22.34;54.72;97874.67;1774902;79;20942;-79
2021/07/03 09:48:56;;;;;;;12.93;8.65;;;;;;;22.97;54.16;97876.40;1776517;80;21141;-81
2021/07/03 09:51:36;;;;;;;12.65;8.48;;;;;;;23.86;52.67;97871.94;1775573;79;21458;-82
2021/07/03 09:54:03;;;;;;;12.45;9.28;;;;;;;24.48;50.82;97866.95;1776008;80;21029;-80
2021/07/03 09:56:29;;;;;;;12.20;10.88;;;;;;;24.87;48.31;97862.52;1749163;80;21403;-80
2021/07/03 09:58:55;;;;;;;10.63;7.70;;;;;;;24.28;49.83;97871.00;1776548;80;21402;-80
2021/07/03 10:01:21;;;;;;;12.03;8.80;;;;;;;23.19;50.76;97859.08;1776187;80;21780;-82
2021/07/03 10:03:48;;;;;;;12.65;8.80;;;;;;;22.81;51.83;97860.66;1776304;80;20846;-82
2021/07/03 10:06:42;;;;;;;9.83;8.83;;;;;;;22.69;53.65;97855.30;1776402;80;21485;-80
2021/07/03 10:09:24;;;;;;;11.97;9.08;;;;;;;22.73;53.19;97859.50;1776974;80;20969;-78
2021/07/03 10:11:51;;;;;;;13.28;8.40;;;;;;;22.62;53.58;97860.67;1748484;80;20946;-82
2021/07/03 10:14:17;;;;;;;16.02;9.10;;;;;;;22.41;53.82;97859.64;1776571;80;22022;-82
2021/07/03 10:16:43;;;;;;;13.83;9.30;;;;;;;22.49;53.95;97870.27;1775928;80;21010;-81
2021/07/03 10:19:16;;;;;;;11.25;9.90;;;;;;;22.67;53.35;97859.59;1748650;80;20935;-79
2021/07/03 10:21:43;;;;;;;14.78;10.05;;;;;;;22.92;53.45;97855.99;1776102;80;21021;-79
2021/07/03 10:24:21;;;;;;;11.48;9.03;;;;;;;23.33;52.28;97857.17;1749298;80;20915;-79
2021/07/03 10:26:48;;;;;;;;;;;;;;;23.36;52.76;97856.42;1776642;80;20867;-81
2021/07/03 10:29:21;;;;;;;13.10;9.13;;;;;;;23.53;50.98;97856.52;1776295;80;20125;-81
2021/07/03 10:31:47;;;;;;;8.65;7.62;;;;;;;23.69;51.80;97843.98;1776110;80;20919;-79
2021/07/03 10:34:14;;;;;;;10.72;8.28;;;;;;;25.27;48.78;97842.38;1773921;80;21037;-79
2021/07/03 10:36:40;;;;;;;10.43;6.85;;;;;;;26.48;44.77;97841.76;1776831;80;21355;-79
2021/07/03 10:39:06;;;;;;;16.60;7.97;;;;;;;28.27;43.00;97837.52;1776483;80;21989;-82
2021/07/03 10:41:34;;;;;;;9.58;7.25;;;;;;;29.00;41.13;97846.70;1776151;80;21096;-79
2021/07/03 10:44:09;;;;;;;9.13;6.90;;;;;;;28.66;39.96;97843.02;1776591;80;20918;-82
2021/07/03 10:46:39;;;;;;;8.50;7.00;;;;;;;29.70;36.47;97834.11;1774396;80;21021;-84
2021/07/03 10:49:09;;;;;;;7.00;5.70;;;;;;;29.21;36.93;97842.38;1776180;80;20950;-83
2021/07/03 10:51:43;;;;;;;6.28;5.67;;;;;;;28.55;37.88;97841.48;1776086;80;21446;-82
2021/07/03 10:54:21;;;;;;;9.20;6.67;;;;;;;27.09;39.94;97828.35;1776839;80;21398;-80
2021/07/03 10:57:00;;;;;;;8.08;7.28;;;;;;;26.11;42.46;97830.22;1775911;80;20993;-81
2021/07/03 10:59:24;;;;;;;8.05;6.60;;;;;;;24.92;44.56;97830.88;1775358;79;20887;-81
2021/07/03 11:01:51;;;;;;;11.83;6.37;;;;;;;24.91;45.11;97819.59;1776423;80;21442;-82
2021/07/03 11:04:19;;;;;;;10.35;5.87;;;;;;;24.64;45.83;97833.53;1776411;80;21318;-83
2021/07/03 11:06:50;;;;;;;;;;;;;;;24.97;44.34;97826.39;1778753;80;21390;-82
2021/07/03 11:09:30;;;;;;;8.65;6.47;;;;;;;24.53;46.03;97827.66;1776805;80;20395;-81
2021/07/03 11:12:00;;;;;;;15.32;10.72;;;;;;;24.80;45.21;97826.41;1776336;79;21001;-80
2021/07/03 11:14:27;;;;;;;9.38;6.60;;;;;;;24.52;44.95;97832.37;1741023;80;20971;-79
2021/07/03 11:16:58;;;;;;;8.35;6.42;;;;;;;24.59;44.48;97826.92;1726782;82;21145;-81
2021/07/03 11:19:27;;;;;;;7.78;5.83;;;;;;;24.50;45.61;97818.69;1726798;83;20963;-81
2021/07/03 11:21:55;;;;;;;;;;;;;;;24.49;46.14;97822.05;1729472;82;21003;-80
2021/07/03 11:24:21;;;;;;;7.33;5.85;;;;;;;25.12;44.94;97815.67;1724692;82;20229;-80